sensor_id;sensor_type;location;lat;lon;timestamp;temperature;humidity
9965;DHT22;5023;53.554;9.964;2023-04-03T00:00:46;2.60;99.90
9965;DHT22;5023;53.554;9.964;2023-04-03T00:06:39;2.70;99.90
9965;DHT22;5023;53.554;9.964;2023-04-03T00:12:20;2.70;99.90
9965;DHT22;5023;53.554;9.964;2023-04-03T00:18:25;2.60;99.90
9965;DHT22;5023;53.554;9.964;2023-04-03T00:24:18;2.60;99.90
9965;DHT22;5023;53.554;9.964;2023-04-03T00:34:59;2.70;99.90
9965;DHT22;5023;53.554;9.964;2023-04-03T00:59:24;2.60;99.90
9965;DHT22;5023;53.554;9.964;2023-04-03T01:05:27;2.70;99.90
9965;DHT22;5023;53.554;9.964;2023-04-03T01:11:07;2.70;99.90
9965;DHT22;5023;53.554;9.964;2023-04-03T01:46:16;2.70;99.90
9965;DHT22;5023;53.554;9.964;2023-04-03T01:51:57;2.60;99.90
9965;DHT22;5023;53.554;9.964;2023-04-03T01:57:58;2.60;99.90
9965;DHT22;5023;53.554;9.964;2023-04-03T02:03:57;2.60;99.90
9965;DHT22;5023;53.554;9.964;2023-04-03T02:09:32;2.60;99.90
9965;DHT22;5023;53.554;9.964;2023-04-03T02:15:09;2.60;99.90
9965;DHT22;5023;53.554;9.964;2023-04-03T02:20:48;2.50;99.90
9965;DHT22;5023;53.554;9.964;2023-04-03T02:31:38;2.40;99.90
9965;DHT22;5023;53.554;9.964;2023-04-03T02:37:38;2.30;99.90
9965;DHT22;5023;53.554;9.964;2023-04-03T02:43:29;2.30;99.90
9965;DHT22;5023;53.554;9.964;2023-04-03T02:49:33;2.20;99.90
9965;DHT22;5023;53.554;9.964;2023-04-03T02:55:18;2.20;99.90
9965;DHT22;5023;53.554;9.964;2023-04-03T03:01:19;2.20;99.90
9965;DHT22;5023;53.554;9.964;2023-04-03T03:12:54;2.00;99.90
9965;DHT22;5023;53.554;9.964;2023-04-03T03:18:34;2.00;99.90
9965;DHT22;5023;53.554;9.964;2023-04-03T03:29:40;2.00;99.90
9965;DHT22;5023;53.554;9.964;2023-04-03T03:35:25;1.90;99.90
9965;DHT22;5023;53.554;9.964;2023-04-03T03:41:10;1.80;99.90
9965;DHT22;5023;53.554;9.964;2023-04-03T03:46:48;1.80;99.90
9965;DHT22;5023;53.554;9.964;2023-04-03T03:52:27;1.80;99.90
9965;DHT22;5023;53.554;9.964;2023-04-03T03:58:50;1.80;99.90
9965;DHT22;5023;53.554;9.964;2023-04-03T04:04:42;1.60;99.90
9965;DHT22;5023;53.554;9.964;2023-04-03T04:16:31;1.70;99.90
9965;DHT22;5023;53.554;9.964;2023-04-03T04:22:24;1.70;99.90
9965;DHT22;5023;53.554;9.964;2023-04-03T04:28:13;1.70;99.90
9965;DHT22;5023;53.554;9.964;2023-04-03T04:39:54;1.70;99.90
9965;DHT22;5023;53.554;9.964;2023-04-03T04:45:34;1.70;99.90
9965;DHT22;5023;53.554;9.964;2023-04-03T04:50:58;1.70;99.90
9965;DHT22;5023;53.554;9.964;2023-04-03T04:56:33;1.70;99.90
9965;DHT22;5023;53.554;9.964;2023-04-03T05:02:08;1.60;99.90
9965;DHT22;5023;53.554;9.964;2023-04-03T05:07:45;1.60;99.90
9965;DHT22;5023;53.554;9.964;2023-04-03T05:13:22;1.60;99.90
9965;DHT22;5023;53.554;9.964;2023-04-03T05:19:08;1.60;99.90
9965;DHT22;5023;53.554;9.964;2023-04-03T05:41:04;3.20;99.90
9965;DHT22;5023;53.554;9.964;2023-04-03T05:46:45;1.80;99.90
9965;DHT22;5023;53.554;9.964;2023-04-03T05:58:58;1.90;99.90
9965;DHT22;5023;53.554;9.964;2023-04-03T06:10:44;2.00;99.90
9965;DHT22;5023;53.554;9.964;2023-04-03T06:22:23;2.30;99.90
9965;DHT22;5023;53.554;9.964;2023-04-03T06:27:58;2.40;99.90
9965;DHT22;5023;53.554;9.964;2023-04-03T06:34:02;2.50;99.90
9965;DHT22;5023;53.554;9.964;2023-04-03T06:39:38;2.70;99.90
9965;DHT22;5023;53.554;9.964;2023-04-03T06:45:20;2.80;99.90
9965;DHT22;5023;53.554;9.964;2023-04-03T06:51:22;3.00;99.90
9965;DHT22;5023;53.554;9.964;2023-04-03T06:57:05;3.10;99.90
9965;DHT22;5023;53.554;9.964;2023-04-03T07:02:12;3.30;99.90
9965;DHT22;5023;53.554;9.964;2023-04-03T07:07:35;3.50;99.90
9965;DHT22;5023;53.554;9.964;2023-04-03T07:13:26;3.60;99.90
9965;DHT22;5023;53.554;9.964;2023-04-03T07:19:07;3.70;99.90
9965;DHT22;5023;53.554;9.964;2023-04-03T07:24:36;4.10;99.90
9965;DHT22;5023;53.554;9.964;2023-04-03T07:29:42;4.30;99.90
9965;DHT22;5023;53.554;9.964;2023-04-03T07:35:18;4.40;99.90
9965;DHT22;5023;53.554;9.964;2023-04-03T07:41:18;4.60;99.90
9965;DHT22;5023;53.554;9.964;2023-04-03T07:47:18;4.80;99.90
9965;DHT22;5023;53.554;9.964;2023-04-03T07:52:58;4.90;99.90
9965;DHT22;5023;53.554;9.964;2023-04-03T07:58:40;5.00;99.90
9965;DHT22;5023;53.554;9.964;2023-04-03T08:03:48;5.10;99.90
9965;DHT22;5023;53.554;9.964;2023-04-03T08:09:05;5.20;99.90
9965;DHT22;5023;53.554;9.964;2023-04-03T08:14:09;5.60;99.90
9965;DHT22;5023;53.554;9.964;2023-04-03T08:19:17;5.60;99.90
9965;DHT22;5023;53.554;9.964;2023-04-03T08:24:26;5.40;99.90
9965;DHT22;5023;53.554;9.964;2023-04-03T08:29:37;5.90;99.90
9965;DHT22;5023;53.554;9.964;2023-04-03T08:34:56;6.10;99.90
9965;DHT22;5023;53.554;9.964;2023-04-03T08:40:00;5.70;99.90
9965;DHT22;5023;53.554;9.964;2023-04-03T08:45:13;5.80;99.90
9965;DHT22;5023;53.554;9.964;2023-04-03T08:50:56;5.80;99.90
9965;DHT22;5023;53.554;9.964;2023-04-03T08:56:26;5.70;99.90
9965;DHT22;5023;53.554;9.964;2023-04-03T09:01:35;5.70;99.90
9965;DHT22;5023;53.554;9.964;2023-04-03T09:06:55;6.20;99.90
9965;DHT22;5023;53.554;9.964;2023-04-03T09:12:18;6.10;99.90
9965;DHT22;5023;53.554;9.964;2023-04-03T09:17:34;6.80;99.90
9965;DHT22;5023;53.554;9.964;2023-04-03T09:22:41;6.80;99.70
9965;DHT22;5023;53.554;9.964;2023-04-03T09:27:47;6.70;97.80
9965;DHT22;5023;53.554;9.964;2023-04-03T09:32:55;6.70;99.30
9965;DHT22;5023;53.554;9.964;2023-04-03T09:37:59;6.80;98.40
9965;DHT22;5023;53.554;9.964;2023-04-03T09:43:23;7.00;96.10
9965;DHT22;5023;53.554;9.964;2023-04-03T09:48:32;6.80;93.50
9965;DHT22;5023;53.554;9.964;2023-04-03T09:53:41;6.90;92.20
9965;DHT22;5023;53.554;9.964;2023-04-03T09:58:46;6.90;90.00
9965;DHT22;5023;53.554;9.964;2023-04-03T10:04:17;6.80;89.80
9965;DHT22;5023;53.554;9.964;2023-04-03T10:09:23;7.00;89.40
9965;DHT22;5023;53.554;9.964;2023-04-03T10:14:30;7.20;84.30
9965;DHT22;5023;53.554;9.964;2023-04-03T10:19:37;7.30;80.20
9965;DHT22;5023;53.554;9.964;2023-04-03T10:24:51;7.20;77.60
9965;DHT22;5023;53.554;9.964;2023-04-03T10:30:13;7.20;74.80
9965;DHT22;5023;53.554;9.964;2023-04-03T10:36:04;7.30;73.20
9965;DHT22;5023;53.554;9.964;2023-04-03T10:41:20;7.50;71.90
9965;DHT22;5023;53.554;9.964;2023-04-03T10:47:02;7.70;69.80
9965;DHT22;5023;53.554;9.964;2023-04-03T10:52:34;7.60;65.90
9965;DHT22;5023;53.554;9.964;2023-04-03T10:57:57;7.60;64.90
9965;DHT22;5023;53.554;9.964;2023-04-03T11:03:08;7.40;65.10
9965;DHT22;5023;53.554;9.964;2023-04-03T11:08:26;7.50;64.90
9965;DHT22;5023;53.554;9.964;2023-04-03T11:13:34;7.50;65.20
9965;DHT22;5023;53.554;9.964;2023-04-03T11:19:02;7.40;66.30
9965;DHT22;5023;53.554;9.964;2023-04-03T11:24:15;7.40;68.00
9965;DHT22;5023;53.554;9.964;2023-04-03T11:29:41;7.70;68.50
9965;DHT22;5023;53.554;9.964;2023-04-03T11:34:52;8.00;68.40
9965;DHT22;5023;53.554;9.964;2023-04-03T11:40:35;8.10;67.50
9965;DHT22;5023;53.554;9.964;2023-04-03T11:46:20;8.60;68.80
9965;DHT22;5023;53.554;9.964;2023-04-03T11:51:50;8.40;66.70
9965;DHT22;5023;53.554;9.964;2023-04-03T11:56:55;8.10;68.30
9965;DHT22;5023;53.554;9.964;2023-04-03T12:02:45;7.90;70.30
9965;DHT22;5023;53.554;9.964;2023-04-03T12:08:16;7.60;71.10
9965;DHT22;5023;53.554;9.964;2023-04-03T12:13:42;8.30;71.00
9965;DHT22;5023;53.554;9.964;2023-04-03T12:19:24;8.70;69.80
9965;DHT22;5023;53.554;9.964;2023-04-03T12:24:32;9.20;72.30
9965;DHT22;5023;53.554;9.964;2023-04-03T12:29:40;9.40;65.40
9965;DHT22;5023;53.554;9.964;2023-04-03T12:35:14;9.30;63.40
9965;DHT22;5023;53.554;9.964;2023-04-03T12:40:25;9.80;62.10
9965;DHT22;5023;53.554;9.964;2023-04-03T12:45:58;10.10;60.20
9965;DHT22;5023;53.554;9.964;2023-04-03T12:51:37;9.50;61.60
9965;DHT22;5023;53.554;9.964;2023-04-03T12:56:42;9.70;62.20
9965;DHT22;5023;53.554;9.964;2023-04-03T13:01:53;10.10;59.20
9965;DHT22;5023;53.554;9.964;2023-04-03T13:06:56;9.90;59.00
9965;DHT22;5023;53.554;9.964;2023-04-03T13:12:01;9.70;58.80
9965;DHT22;5023;53.554;9.964;2023-04-03T13:17:15;9.50;60.20
9965;DHT22;5023;53.554;9.964;2023-04-03T13:22:35;9.10;59.60
9965;DHT22;5023;53.554;9.964;2023-04-03T13:27:53;9.60;59.10
9965;DHT22;5023;53.554;9.964;2023-04-03T13:32:59;10.00;57.70
9965;DHT22;5023;53.554;9.964;2023-04-03T13:38:22;10.10;57.50
9965;DHT22;5023;53.554;9.964;2023-04-03T13:43:33;9.90;57.40
9965;DHT22;5023;53.554;9.964;2023-04-03T13:48:42;10.20;56.10
9965;DHT22;5023;53.554;9.964;2023-04-03T13:54:19;10.70;56.00
9965;DHT22;5023;53.554;9.964;2023-04-03T13:59:28;10.60;56.00
9965;DHT22;5023;53.554;9.964;2023-04-03T14:04:43;10.20;53.60
9965;DHT22;5023;53.554;9.964;2023-04-03T14:09:47;10.60;53.50
9965;DHT22;5023;53.554;9.964;2023-04-03T14:14:49;10.40;52.90
9965;DHT22;5023;53.554;9.964;2023-04-03T14:19:57;10.80;53.80
9965;DHT22;5023;53.554;9.964;2023-04-03T14:24:59;10.50;51.70
9965;DHT22;5023;53.554;9.964;2023-04-03T14:30:16;9.80;52.90
9965;DHT22;5023;53.554;9.964;2023-04-03T14:35:21;9.40;53.50
9965;DHT22;5023;53.554;9.964;2023-04-03T14:40:27;9.40;53.80
9965;DHT22;5023;53.554;9.964;2023-04-03T14:45:34;9.10;54.70
9965;DHT22;5023;53.554;9.964;2023-04-03T14:50:39;8.70;56.20
9965;DHT22;5023;53.554;9.964;2023-04-03T14:55:43;8.70;56.20
9965;DHT22;5023;53.554;9.964;2023-04-03T15:00:46;8.70;56.50
9965;DHT22;5023;53.554;9.964;2023-04-03T15:05:50;8.80;57.00
9965;DHT22;5023;53.554;9.964;2023-04-03T15:10:53;8.50;57.20
9965;DHT22;5023;53.554;9.964;2023-04-03T15:15:56;8.60;58.60
9965;DHT22;5023;53.554;9.964;2023-04-03T15:21:00;8.60;57.70
9965;DHT22;5023;53.554;9.964;2023-04-03T15:26:03;8.50;58.20
9965;DHT22;5023;53.554;9.964;2023-04-03T15:31:08;8.50;58.90
9965;DHT22;5023;53.554;9.964;2023-04-03T15:36:13;8.30;58.90
9965;DHT22;5023;53.554;9.964;2023-04-03T15:41:16;8.10;59.50
9965;DHT22;5023;53.554;9.964;2023-04-03T15:46:22;7.90;62.00
9965;DHT22;5023;53.554;9.964;2023-04-03T15:51:27;7.90;63.70
9965;DHT22;5023;53.554;9.964;2023-04-03T15:56:30;7.80;64.70
9965;DHT22;5023;53.554;9.964;2023-04-03T16:01:32;7.90;64.80
9965;DHT22;5023;53.554;9.964;2023-04-03T16:06:49;7.60;63.70
9965;DHT22;5023;53.554;9.964;2023-04-03T16:11:55;7.50;64.50
9965;DHT22;5023;53.554;9.964;2023-04-03T16:17:02;7.50;64.80
9965;DHT22;5023;53.554;9.964;2023-04-03T16:22:24;7.50;65.30
9965;DHT22;5023;53.554;9.964;2023-04-03T16:27:31;7.40;67.10
9965;DHT22;5023;53.554;9.964;2023-04-03T16:32:35;7.30;67.60
9965;DHT22;5023;53.554;9.964;2023-04-03T16:37:40;7.30;68.40
9965;DHT22;5023;53.554;9.964;2023-04-03T16:42:47;7.20;68.40
9965;DHT22;5023;53.554;9.964;2023-04-03T16:47:49;7.20;68.80
9965;DHT22;5023;53.554;9.964;2023-04-03T16:52:53;7.10;69.50
9965;DHT22;5023;53.554;9.964;2023-04-03T16:57:57;6.90;70.40
9965;DHT22;5023;53.554;9.964;2023-04-03T17:02:59;6.90;71.00
9965;DHT22;5023;53.554;9.964;2023-04-03T17:08:03;6.80;71.90
9965;DHT22;5023;53.554;9.964;2023-04-03T17:13:05;6.70;72.40
9965;DHT22;5023;53.554;9.964;2023-04-03T17:18:08;6.50;73.60
9965;DHT22;5023;53.554;9.964;2023-04-03T17:23:15;6.50;76.50
9965;DHT22;5023;53.554;9.964;2023-04-03T17:28:23;6.40;78.80
9965;DHT22;5023;53.554;9.964;2023-04-03T17:33:30;6.30;80.70
9965;DHT22;5023;53.554;9.964;2023-04-03T17:38:36;6.30;83.30
9965;DHT22;5023;53.554;9.964;2023-04-03T17:43:39;6.20;83.30
9965;DHT22;5023;53.554;9.964;2023-04-03T17:48:41;6.10;83.70
9965;DHT22;5023;53.554;9.964;2023-04-03T17:53:46;6.00;84.20
9965;DHT22;5023;53.554;9.964;2023-04-03T17:58:50;6.00;83.40
9965;DHT22;5023;53.554;9.964;2023-04-03T18:03:55;6.00;82.40
9965;DHT22;5023;53.554;9.964;2023-04-03T18:09:04;5.80;81.10
9965;DHT22;5023;53.554;9.964;2023-04-03T18:14:38;5.80;81.20
9965;DHT22;5023;53.554;9.964;2023-04-03T18:19:50;5.70;82.30
9965;DHT22;5023;53.554;9.964;2023-04-03T18:30:41;5.40;82.30
9965;DHT22;5023;53.554;9.964;2023-04-03T18:35:54;5.50;83.50
9965;DHT22;5023;53.554;9.964;2023-04-03T18:40:59;5.40;84.80
9965;DHT22;5023;53.554;9.964;2023-04-03T18:46:31;5.30;86.10
9965;DHT22;5023;53.554;9.964;2023-04-03T18:51:59;5.20;87.50
9965;DHT22;5023;53.554;9.964;2023-04-03T18:57:31;5.10;89.70
9965;DHT22;5023;53.554;9.964;2023-04-03T19:02:53;5.10;90.00
9965;DHT22;5023;53.554;9.964;2023-04-03T19:08:15;5.10;91.10
9965;DHT22;5023;53.554;9.964;2023-04-03T19:13:20;5.10;92.50
